TimeMDT,TemperatureF,Dew PointF,Humidity,Sea Level PressureIn,VisibilityMPH,Wind Direction,Wind SpeedMPH,Gust SpeedMPH,PrecipitationIn,Events,Conditions,WindDirDegrees,DateUTC
12:15 AM,42.8,19.4,39,30.37,10.0,NW,8.1,-,N/A,,Clear,310,2013-05-03 06:15:00
12:35 AM,42.8,19.4,39,30.37,10.0,NW,6.9,-,N/A,,Clear,320,2013-05-03 06:35:00
12:55 AM,42.8,19.4,39,30.36,10.0,NW,8.1,-,N/A,,Clear,310,2013-05-03 06:55:00
1:15 AM,41.0,21.2,45,30.36,10.0,NW,6.9,-,N/A,,Clear,320,2013-05-03 07:15:00
1:35 AM,41.0,21.2,45,30.36,10.0,NW,8.1,-,N/A,,Clear,310,2013-05-03 07:35:00
1:55 AM,41.0,21.2,45,30.35,10.0,NW,10.4,-,N/A,,Clear,320,2013-05-03 07:55:00
2:15 AM,39.2,21.2,49,30.34,10.0,NW,9.2,-,N/A,,Clear,320,2013-05-03 08:15:00
2:35 AM,39.2,21.2,49,30.34,10.0,NW,11.5,-,N/A,,Clear,310,2013-05-03 08:35:00
2:55 AM,39.2,21.2,49,30.33,10.0,NW,10.4,-,N/A,,Clear,320,2013-05-03 08:55:00
3:15 AM,37.4,21.2,52,30.33,10.0,NW,8.1,-,N/A,,Clear,320,2013-05-03 09:15:00
3:35 AM,37.4,21.2,52,30.32,10.0,NW,9.2,-,N/A,,Clear,310,2013-05-03 09:35:00
3:55 AM,39.2,21.2,49,30.31,10.0,NNW,11.5,-,N/A,,Clear,330,2013-05-03 09:55:00
4:15 AM,37.4,21.2,52,30.31,10.0,NW,11.5,-,N/A,,Clear,320,2013-05-03 10:15:00
4:35 AM,37.4,21.2,52,30.30,10.0,NW,9.2,-,N/A,,Clear,310,2013-05-03 10:35:00
4:55 AM,37.4,21.2,52,30.30,10.0,NW,10.4,-,N/A,,Clear,320,2013-05-03 10:55:00
5:15 AM,37.4,21.2,52,30.29,10.0,NW,10.4,-,N/A,,Clear,320,2013-05-03 11:15:00
5:35 AM,37.4,21.2,52,30.29,10.0,NW,11.5,-,N/A,,Clear,320,2013-05-03 11:35:00
5:55 AM,37.4,21.2,52,30.27,10.0,NW,10.4,-,N/A,,Clear,320,2013-05-03 11:55:00
6:15 AM,37.4,21.2,52,30.27,10.0,NNW,12.7,-,N/A,,Clear,330,2013-05-03 12:15:00
6:35 AM,35.6,21.2,56,30.27,10.0,NNW,12.7,-,N/A,,Clear,340,2013-05-03 12:35:00
6:47 AM,37.4,21.2,52,30.27,10.0,NW,11.5,-,N/A,,Scattered Clouds,310,2013-05-03 12:47:00
6:55 AM,37.4,21.2,52,30.27,10.0,NNW,10.4,-,N/A,,Clear,330,2013-05-03 12:55:00
7:48 AM,39.2,21.2,49,30.26,10.0,NW,12.7,-,N/A,,Mostly Cloudy,310,2013-05-03 13:48:00
8:47 AM,42.8,21.2,42,30.24,10.0,NW,9.2,-,N/A,,Mostly Cloudy,320,2013-05-03 14:47:00
9:47 AM,50.0,42.8,76,30.22,10.0,NW,5.8,-,N/A,,Mostly Cloudy,320,2013-05-03 15:47:00
10:47 AM,55.4,39.2,54,30.20,10.0,ESE,11.5,-,N/A,,Mostly Cloudy,110,2013-05-03 16:47:00
11:47 AM,57.2,19.4,23,30.18,10.0,ESE,11.5,-,N/A,,Mostly Cloudy,120,2013-05-03 17:47:00
12:47 PM,60.8,19.4,20,30.16,10.0,SE,9.2,-,N/A,,Mostly Cloudy,130,2013-05-03 18:47:00
1:47 PM,62.6,19.4,19,30.14,10.0,SE,11.5,18.4,N/A,,Mostly Cloudy,130,2013-05-03 19:47:00
2:47 PM,64.4,21.2,19,30.11,10.0,SSE,9.2,-,N/A,,Overcast,150,2013-05-03 20:47:00
3:50 PM,62.6,24.8,24,30.09,10.0,SSE,4.6,-,N/A,,Mostly Cloudy,160,2013-05-03 21:50:00
4:50 PM,62.6,23.0,22,30.07,10.0,SSW,4.6,-,N/A,,Mostly Cloudy,210,2013-05-03 22:50:00
5:47 PM,62.6,24.8,24,30.06,10.0,West,11.5,-,N/A,,Mostly Cloudy,280,2013-05-03 23:47:00
6:47 PM,57.2,30.2,36,30.08,10.0,WNW,20.7,28.8,N/A,,Mostly Cloudy,300,2013-05-04 00:47:00
7:47 PM,57.2,28.4,33,30.07,10.0,NW,3.5,-,N/A,,Mostly Cloudy,310,2013-05-04 01:47:00
8:47 PM,55.4,30.2,38,30.06,10.0,NNE,6.9,-,N/A,,Mostly Cloudy,20,2013-05-04 02:47:00
9:47 PM,53.6,30.2,41,30.08,10.0,North,10.4,-,N/A,,Mostly Cloudy,360,2013-05-04 03:47:00
10:47 PM,51.8,32.0,47,30.10,10.0,North,5.8,-,N/A,,Mostly Cloudy,350,2013-05-04 04:47:00
11:15 PM,50.0,32.0,50,30.09,10.0,North,8.1,-,N/A,,Clear,10,2013-05-04 05:15:00
11:35 PM,50.0,32.0,50,30.09,10.0,North,4.6,19.6,N/A,,Scattered Clouds,350,2013-05-04 05:35:00
11:55 PM,50.0,32.0,50,30.09,10.0,North,8.1,-,N/A,,Mostly Cloudy,10,2013-05-04 05:55:00